Time;durP1;ratioP1;P1;durP2;ratioP2;P2;SDS_P1;SDS_P2;PMS_P1;PMS_P2;Temp;Humidity;BMP_temperature;BMP_pressure;BME280_temperature;BME280_humidity;BME280_pressure;Samples;Min_cycle;Max_cycle;Signal;HPM_P1;HPM_P2
2023/09/21 00:00:59;;;;;;;3.27;1.63;;;19.30;99.90;;;;;;4985408;28;20462;-80
2023/09/21 00:03:28;;;;;;;3.30;1.80;;;19.20;91.30;;;;;;4983884;28;20459;-80
2023/09/21 00:05:56;;;;;;;5.40;1.70;;;19.20;1.00;;;;;;4984351;28;20470;-79
2023/09/21 00:08:23;;;;;;;3.57;1.87;;;19.30;1.00;;;;;;4984589;28;20565;-79
2023/09/21 00:10:50;;;;;;;3.30;1.90;;;19.30;1.00;;;;;;4986351;28;20463;-80
2023/09/21 00:13:17;;;;;;;3.70;1.80;;;19.30;1.00;;;;;;4985941;28;20487;-79
2023/09/21 00:15:44;;;;;;;2.57;1.60;;;19.30;1.00;;;;;;4986200;28;20985;-79
2023/09/21 00:18:13;;;;;;;2.57;1.63;;;19.40;1.00;;;;;;4986145;28;20878;-79
2023/09/21 00:20:48;;;;;;;2.20;1.40;;;19.40;1.00;;;;;;4985579;28;20467;-79
2023/09/21 00:23:15;;;;;;;2.77;1.73;;;19.40;1.00;;;;;;4985646;28;20554;-80
2023/09/21 00:25:42;;;;;;;2.87;1.60;;;19.40;36.70;;;;;;4986285;28;20506;-78
2023/09/21 00:28:12;;;;;;;2.40;1.53;;;19.30;62.10;;;;;;4985431;28;20491;-78
2023/09/21 00:30:40;;;;;;;2.20;1.60;;;19.30;28.30;;;;;;4986643;28;20612;-79
2023/09/21 00:33:07;;;;;;;2.40;1.73;;;19.30;99.90;;;;;;4984187;28;20959;-79
2023/09/21 00:35:39;;;;;;;2.40;1.63;;;19.30;99.90;;;;;;4983756;28;20464;-79
2023/09/21 00:38:10;;;;;;;3.20;1.77;;;19.20;99.90;;;;;;4983662;28;20459;-79
2023/09/21 00:40:38;;;;;;;4.10;1.70;;;19.20;99.90;;;;;;4985112;28;20456;-80
2023/09/21 00:43:07;;;;;;;2.77;1.50;;;19.20;99.90;;;;;;4985092;28;20467;-80
2023/09/21 00:45:37;;;;;;;3.27;2.50;;;19.20;1.00;;;;;;4983951;28;20472;-80
2023/09/21 00:48:09;;;;;;;3.67;1.97;;;19.20;99.90;;;;;;4983758;28;20662;-80
2023/09/21 00:50:36;;;;;;;2.83;1.67;;;19.10;99.90;;;;;;4983956;28;20474;-80
2023/09/21 00:53:05;;;;;;;2.80;1.80;;;19.10;1.00;;;;;;4984463;28;20521;-79
2023/09/21 00:55:39;;;;;;;2.60;1.53;;;19.10;6.70;;;;;;4984426;28;20570;-80
2023/09/21 00:58:07;;;;;;;2.30;1.60;;;19.10;99.90;;;;;;4981976;28;20475;-80
2023/09/21 01:00:34;;;;;;;2.60;1.50;;;19.10;99.90;;;;;;4983564;28;20498;-79
2023/09/21 01:03:07;;;;;;;3.00;1.90;;;19.10;99.90;;;;;;4984848;28;20467;-80
2023/09/21 01:05:36;;;;;;;2.63;1.50;;;19.10;99.90;;;;;;4984828;28;20525;-79
2023/09/21 01:08:09;;;;;;;3.10;1.47;;;19.10;99.90;;;;;;4984366;28;20491;-79
2023/09/21 01:10:39;;;;;;;2.50;1.50;;;19.10;99.90;;;;;;4984047;28;20477;-79
2023/09/21 01:13:07;;;;;;;2.30;1.43;;;19.00;99.90;;;;;;4985524;28;20460;-79
2023/09/21 01:15:35;;;;;;;2.57;1.60;;;19.00;5.50;;;;;;4983059;28;20459;-79
2023/09/21 01:18:06;;;;;;;3.20;1.43;;;19.10;1.00;;;;;;4983286;28;20515;-79
2023/09/21 01:20:33;;;;;;;3.10;1.50;;;19.00;1.00;;;;;;4983372;28;20518;-80
2023/09/21 01:23:11;;;;;;;2.80;1.50;;;19.10;89.20;;;;;;4983037;28;20508;-80
2023/09/21 01:25:41;;;;;;;2.53;1.93;;;19.10;99.90;;;;;;4983932;28;20454;-78
2023/09/21 01:28:09;;;;;;;2.70;1.53;;;19.00;1.00;;;;;;4982812;28;21037;-79
2023/09/21 01:30:37;;;;;;;3.50;1.30;;;19.00;1.00;;;;;;4983760;28;20458;-79
2023/09/21 01:33:11;;;;;;;2.20;1.50;;;19.00;1.00;;;;;;4983593;28;20580;-79
2023/09/21 01:35:38;;;;;;;2.70;1.90;;;19.10;1.00;;;;;;4983453;28;20546;-79
2023/09/21 01:38:06;;;;;;;2.80;1.80;;;19.10;99.90;;;;;;4983141;28;20526;-79
2023/09/21 01:40:34;;;;;;;2.50;1.50;;;19.10;99.90;;;;;;4983629;28;20486;-78
2023/09/21 01:43:06;;;;;;;2.23;1.43;;;19.20;99.90;;;;;;4983167;28;20473;-79
2023/09/21 01:45:33;;;;;;;2.50;1.93;;;19.10;99.90;;;;;;4984845;28;20463;-79
2023/09/21 01:48:00;;;;;;;1.93;1.57;;;19.10;99.90;;;;;;4982878;28;20499;-77
2023/09/21 01:50:28;;;;;;;2.17;1.40;;;19.10;99.90;;;;;;4976819;28;20514;-78
2023/09/21 01:52:55;;;;;;;3.00;1.50;;;19.20;99.90;;;;;;4984564;28;20466;-78
2023/09/21 01:55:22;;;;;;;3.30;1.80;;;19.10;1.00;;;;;;4983461;28;20534;-79
2023/09/21 01:57:49;;;;;;;2.20;1.60;;;19.10;99.90;;;;;;4983193;28;20458;-79
2023/09/21 02:00:26;;;;;;;2.90;1.77;;;19.10;1.00;;;;;;4983645;28;20475;-78
2023/09/21 02:02:53;;;;;;;2.83;1.40;;;19.00;99.90;;;;;;4982753;28;20898;-79
2023/09/21 02:05:20;;;;;;;2.60;1.80;;;19.00;99.90;;;;;;4983303;28;20993;-79
2023/09/21 02:07:48;;;;;;;2.50;1.30;;;19.00;1.00;;;;;;4983532;28;20582;-79
2023/09/21 02:10:17;;;;;;;3.17;1.80;;;18.90;99.90;;;;;;4982703;28;20487;-79
2023/09/21 02:12:55;;;;;;;3.00;1.70;;;18.90;99.90;;;;;;4983465;28;20458;-79
2023/09/21 02:15:23;;;;;;;3.30;1.67;;;18.90;99.90;;;;;;4982582;28;20957;-79
2023/09/21 02:17:51;;;;;;;3.00;1.90;;;18.90;99.90;;;;;;4982319;28;20465;-79
2023/09/21 02:20:20;;;;;;;2.20;1.40;;;18.90;99.90;;;;;;4982792;28;20479;-79
2023/09/21 02:22:48;;;;;;;2.60;1.63;;;19.00;99.90;;;;;;4981800;28;21030;-78
2023/09/21 02:25:15;;;;;;;4.30;1.37;;;19.00;99.90;;;;;;4983779;28;20545;-79
2023/09/21 02:27:45;;;;;;;3.07;1.70;;;19.00;99.90;;;;;;4982675;28;21090;-78
2023/09/21 02:30:16;;;;;;;3.37;1.60;;;18.90;99.90;;;;;;4983200;28;20490;-79
2023/09/21 02:32:48;;;;;;;3.10;1.43;;;19.00;99.90;;;;;;4983006;28;20464;-79
2023/09/21 02:35:16;;;;;;;4.37;1.77;;;19.00;99.90;;;;;;4983214;28;20596;-79
2023/09/21 02:37:44;;;;;;;2.80;1.63;;;19.00;99.90;;;;;;4981771;28;20542;-79
2023/09/21 02:40:15;;;;;;;3.30;1.53;;;19.00;99.90;;;;;;4982477;28;20509;-78
2023/09/21 02:42:43;;;;;;;3.50;1.30;;;18.90;99.90;;;;;;4982935;28;20459;-79
2023/09/21 02:45:11;;;;;;;2.80;1.80;;;18.90;99.90;;;;;;4983483;28;20459;-79
2023/09/21 02:47:38;;;;;;;2.57;1.60;;;18.90;99.90;;;;;;4982210;28;20582;-78
2023/09/21 02:50:15;;;;;;;2.53;1.60;;;18.90;99.90;;;;;;4981960;28;20539;-79
2023/09/21 02:52:46;;;;;;;2.53;1.60;;;18.90;99.90;;;;;;4981441;28;20451;-78
2023/09/21 02:55:16;;;;;;;4.17;1.80;;;18.90;99.90;;;;;;4987703;28;20475;-78
2023/09/21 02:57:43;;;;;;;2.50;1.50;;;18.80;99.90;;;;;;4980915;28;20459;-78
2023/09/21 03:00:21;;;;;;;5.73;1.80;;;18.90;99.90;;;;;;4988167;28;20539;-78
2023/09/21 03:02:49;;;;;;;3.27;1.97;;;18.90;1.00;;;;;;4980197;28;20479;-78
2023/09/21 03:05:17;;;;;;;2.77;1.70;;;18.80;1.00;;;;;;4983572;28;20457;-79
2023/09/21 03:07:45;;;;;;;3.40;1.60;;;18.80;1.00;;;;;;4980543;28;20587;-78
2023/09/21 03:10:12;;;;;;;3.80;1.70;;;18.70;1.00;;;;;;4980929;28;20938;-79
2023/09/21 03:12:39;;;;;;;2.90;1.80;;;18.70;99.90;;;;;;4981163;28;20459;-78
2023/09/21 03:15:13;;;;;;;2.60;1.60;;;18.70;99.90;;;;;;4981363;28;20452;-79
2023/09/21 03:17:43;;;;;;;3.50;1.87;;;18.60;1.00;;;;;;4980923;28;20503;-79
2023/09/21 03:20:12;;;;;;;2.83;1.80;;;18.70;1.00;;;;;;4981198;28;20537;-79
2023/09/21 03:22:41;;;;;;;3.23;1.77;;;18.60;1.00;;;;;;4984284;28;20466;-78
2023/09/21 03:25:16;;;;;;;2.37;1.50;;;18.60;1.00;;;;;;4985767;28;20459;-79
2023/09/21 03:27:43;;;;;;;2.80;1.50;;;18.60;1.00;;;;;;4985168;28;21020;-79
2023/09/21 03:30:11;;;;;;;3.03;1.70;;;18.60;99.90;;;;;;4984979;28;20521;-79
2023/09/21 03:32:40;;;;;;;4.83;1.87;;;18.50;99.90;;;;;;4984907;28;20514;-78
2023/09/21 03:35:10;;;;;;;2.40;1.37;;;18.40;1.00;;;;;;4984200;28;20456;-79
2023/09/21 03:37:40;;;;;;;2.50;1.40;;;18.50;1.00;;;;;;4983859;28;20480;-78
2023/09/21 03:40:10;;;;;;;3.13;1.70;;;18.50;1.00;;;;;;4985018;28;20479;-78
2023/09/21 03:42:37;;;;;;;2.73;1.40;;;18.50;1.00;;;;;;4984394;28;20451;-79
2023/09/21 03:45:05;;;;;;;2.50;1.37;;;18.50;1.00;;;;;;4985039;28;20462;-79
2023/09/21 03:47:33;;;;;;;4.73;1.50;;;18.50;1.00;;;;;;4984435;28;20455;-78
2023/09/21 03:50:00;;;;;;;2.50;1.60;;;18.60;1.00;;;;;;4990704;28;20487;-78
2023/09/21 03:52:27;;;;;;;2.10;1.50;;;18.50;1.00;;;;;;4989206;28;20542;-78
2023/09/21 03:54:54;;;;;;;4.27;1.70;;;18.60;27.20;;;;;;4984553;28;20464;-78
2023/09/21 03:57:23;;;;;;;2.90;1.83;;;18.50;1.00;;;;;;4983690;28;20485;-78
2023/09/21 03:59:49;;;;;;;4.57;2.00;;;18.40;1.00;;;;;;4982649;28;20467;-79
2023/09/21 04:02:19;;;;;;;6.80;1.93;;;18.50;1.00;;;;;;4984067;28;20453;-78
2023/09/21 04:04:49;;;;;;;2.03;1.53;;;18.40;1.00;;;;;;4985099;28;20459;-79
2023/09/21 04:07:17;;;;;;;2.50;1.70;;;18.50;1.00;;;;;;4983355;28;20852;-78
2023/09/21 04:09:45;;;;;;;4.27;1.97;;;18.50;1.00;;;;;;4983590;28;20506;-77
2023/09/21 04:12:13;;;;;;;3.03;1.80;;;18.50;1.00;;;;;;4982555;28;20481;-79
2023/09/21 04:14:46;;;;;;;2.57;1.77;;;18.40;90.30;;;;;;4982506;28;20677;-78
2023/09/21 04:17:13;;;;;;;4.20;1.77;;;18.50;68.40;;;;;;4982529;28;20447;-79
2023/09/21 04:19:40;;;;;;;2.70;1.70;;;18.40;99.90;;;;;;4980793;28;20486;-79
2023/09/21 04:22:07;;;;;;;2.20;1.40;;;18.30;99.90;;;;;;4981067;28;20473;-79
2023/09/21 04:24:34;;;;;;;2.40;1.50;;;18.40;99.90;;;;;;4983799;28;20982;-79
2023/09/21 04:27:03;;;;;;;4.80;1.90;;;18.40;99.90;;;;;;4981822;28;20965;-79
2023/09/21 04:29:30;;;;;;;3.57;2.00;;;18.40;99.90;;;;;;4983069;28;20502;-79
2023/09/21 04:31:59;;;;;;;2.50;1.60;;;18.30;1.00;;;;;;4983585;28;20920;-78
2023/09/21 04:34:26;;;;;;;2.60;1.90;;;18.40;39.40;;;;;;4983199;28;20463;-78
2023/09/21 04:36:56;;;;;;;2.60;1.53;;;18.40;22.10;;;;;;4983550;28;20463;-78
2023/09/21 04:39:23;;;;;;;2.77;1.53;;;18.40;60.00;;;;;;4983616;28;20483;-79
2023/09/21 04:41:49;;;;;;;2.47;2.13;;;18.40;49.80;;;;;;4984046;28;20486;-79
2023/09/21 04:44:16;;;;;;;2.97;1.70;;;18.40;1.00;;;;;;4982727;28;20464;-78
2023/09/21 04:46:43;;;;;;;2.00;1.50;;;18.40;32.90;;;;;;4983343;28;20452;-79
2023/09/21 04:49:11;;;;;;;3.03;1.47;;;18.40;91.60;;;;;;4982726;28;20509;-79
2023/09/21 04:51:39;;;;;;;3.23;2.07;;;18.30;99.90;;;;;;4983609;28;20463;-81
2023/09/21 04:54:08;;;;;;;2.53;1.40;;;18.30;99.90;;;;;;4980131;28;20458;-78
2023/09/21 04:56:36;;;;;;;2.13;1.53;;;18.40;99.90;;;;;;4977488;28;21159;-77
2023/09/21 04:59:03;;;;;;;2.70;1.87;;;18.30;99.90;;;;;;4977052;28;20499;-78
2023/09/21 05:01:31;;;;;;;3.30;2.03;;;18.40;1.00;;;;;;4980096;28;20515;-77
2023/09/21 05:03:57;;;;;;;3.27;1.50;;;18.50;99.90;;;;;;4980542;28;20455;-78
2023/09/21 05:06:26;;;;;;;2.80;1.73;;;18.50;99.90;;;;;;4978711;28;20460;-79
2023/09/21 05:08:53;;;;;;;2.53;1.60;;;18.50;99.90;;;;;;4982389;28;20499;-78
2023/09/21 05:11:20;;;;;;;3.23;1.77;;;18.50;99.90;;;;;;4982097;28;21079;-79
2023/09/21 05:13:47;;;;;;;2.97;1.80;;;18.50;1.00;;;;;;4981747;28;20468;-78
2023/09/21 05:16:13;;;;;;;3.30;1.73;;;18.50;99.90;;;;;;4983386;28;20920;-78
2023/09/21 05:18:41;;;;;;;3.00;1.97;;;18.60;1.00;;;;;;4983918;28;20481;-78
2023/09/21 05:21:08;;;;;;;3.23;1.93;;;18.60;99.90;;;;;;4984052;28;20509;-78
2023/09/21 05:23:37;;;;;;;2.67;1.50;;;18.60;99.90;;;;;;4984673;28;20467;-79
2023/09/21 05:26:04;;;;;;;3.07;1.83;;;18.60;99.90;;;;;;4983738;28;20462;-78
2023/09/21 05:28:31;;;;;;;2.80;1.60;;;18.60;99.90;;;;;;4983434;28;20555;-80
2023/09/21 05:30:57;;;;;;;3.90;1.97;;;18.60;1.00;;;;;;4983883;28;20464;-78
2023/09/21 05:33:24;;;;;;;3.20;1.60;;;18.60;1.00;;;;;;4983140;28;20542;-79
2023/09/21 05:35:54;;;;;;;3.30;1.80;;;18.60;1.00;;;;;;4983782;28;20910;-78
2023/09/21 05:38:21;;;;;;;2.57;1.73;;;18.60;2.00;;;;;;4982536;28;20466;-78
2023/09/21 05:40:49;;;;;;;3.37;1.80;;;18.70;1.00;;;;;;4984057;28;20465;-78
2023/09/21 05:43:16;;;;;;;5.13;1.90;;;18.50;1.00;;;;;;4982490;28;20469;-77
2023/09/21 05:45:43;;;;;;;6.33;2.20;;;18.60;1.00;;;;;;4982381;28;20463;-78
2023/09/21 05:48:15;;;;;;;2.53;1.80;;;18.70;1.00;;;;;;4982204;28;20451;-78
2023/09/21 05:50:42;;;;;;;3.93;2.00;;;18.70;1.00;;;;;;4984068;28;20897;-81
2023/09/21 05:53:09;;;;;;;2.30;1.87;;;18.70;99.90;;;;;;4982712;28;20462;-78
2023/09/21 05:55:37;;;;;;;3.90;2.27;;;18.80;1.00;;;;;;4979514;28;20462;-77
2023/09/21 05:58:05;;;;;;;3.43;1.73;;;18.80;1.00;;;;;;4976252;28;20534;-76
2023/09/21 06:00:32;;;;;;;3.93;2.07;;;18.80;1.00;;;;;;4972009;28;20459;-78
2023/09/21 06:02:59;;;;;;;2.63;1.73;;;18.80;17.60;;;;;;4970546;28;20443;-78
2023/09/21 06:05:27;;;;;;;2.77;2.37;;;18.90;99.90;;;;;;4969092;28;20448;-78
2023/09/21 06:07:54;;;;;;;4.63;2.00;;;18.90;1.00;;;;;;4970343;28;20836;-78
2023/09/21 06:10:21;;;;;;;3.43;2.00;;;19.00;1.00;;;;;;4969892;28;20929;-78
2023/09/21 06:12:48;;;;;;;2.27;1.40;;;19.00;1.00;;;;;;4966844;28;20463;-77
2023/09/21 06:15:17;;;;;;;5.80;2.20;;;19.10;1.00;;;;;;4966493;28;20502;-78
2023/09/21 06:17:45;;;;;;;3.20;2.03;;;19.00;99.90;;;;;;4969433;28;20460;-78
2023/09/21 06:20:12;;;;;;;3.50;1.97;;;19.10;99.90;;;;;;4969236;28;20570;-78
2023/09/21 06:22:39;;;;;;;3.90;2.27;;;19.20;99.90;;;;;;4973073;28;20452;-78
2023/09/21 06:25:07;;;;;;;3.00;2.07;;;19.20;99.90;;;;;;4986017;28;20470;-78
2023/09/21 06:27:36;;;;;;;3.10;2.10;;;19.30;99.90;;;;;;4976921;28;20538;-78
2023/09/21 06:30:04;;;;;;;3.73;2.03;;;19.40;99.90;;;;;;4962827;28;20496;-77
2023/09/21 06:32:32;;;;;;;2.87;1.80;;;19.40;1.00;;;;;;4972651;28;20463;-79
2023/09/21 06:34:59;;;;;;;3.03;2.20;;;19.40;99.90;;;;;;4972889;28;20993;-77
2023/09/21 06:37:30;;;;;;;2.80;1.90;;;19.40;99.90;;;;;;4974637;28;20467;-78
2023/09/21 06:39:57;;;;;;;3.30;1.67;;;19.40;99.90;;;;;;4964762;28;20471;-78
2023/09/21 06:42:24;;;;;;;4.63;2.10;;;19.50;99.90;;;;;;4965821;28;20483;-77
2023/09/21 06:44:54;;;;;;;3.70;2.03;;;19.50;99.90;;;;;;4963569;28;20466;-77
2023/09/21 06:47:22;;;;;;;4.10;1.97;;;19.50;99.90;;;;;;4970780;28;20507;-79
2023/09/21 06:49:53;;;;;;;3.23;1.90;;;19.60;99.90;;;;;;4971624;28;20499;-78
2023/09/21 06:52:21;;;;;;;11.37;3.13;;;19.60;99.90;;;;;;4976330;28;20459;-78
2023/09/21 06:54:48;;;;;;;3.83;2.03;;;19.70;99.90;;;;;;4975035;28;20471;-77
2023/09/21 06:57:15;;;;;;;3.00;2.00;;;19.80;99.90;;;;;;4971676;28;20868;-78
2023/09/21 06:59:43;;;;;;;2.50;1.60;;;19.80;99.90;;;;;;4974222;28;20471;-78
2023/09/21 07:02:09;;;;;;;4.87;1.97;;;19.80;99.90;;;;;;4975066;28;20463;-78
2023/09/21 07:04:37;;;;;;;4.00;1.57;;;19.90;99.90;;;;;;4979998;28;20455;-77
2023/09/21 07:07:06;;;;;;;4.80;2.23;;;20.00;99.90;;;;;;4991590;28;20462;-77
2023/09/21 07:09:34;;;;;;;3.77;1.77;;;20.00;99.90;;;;;;4991398;28;20491;-77
2023/09/21 07:12:01;;;;;;;3.50;2.10;;;20.10;99.90;;;;;;4982629;28;20471;-77
2023/09/21 07:14:28;;;;;;;3.70;2.23;;;20.10;99.90;;;;;;4974166;28;20451;-77
2023/09/21 07:16:56;;;;;;;4.00;2.07;;;20.20;99.90;;;;;;4977649;28;20841;-78
2023/09/21 07:19:23;;;;;;;3.30;2.00;;;20.20;99.90;;;;;;4972209;28;20490;-78
2023/09/21 07:21:50;;;;;;;4.43;1.93;;;20.20;99.90;;;;;;4978177;28;20887;-77
2023/09/21 07:24:18;;;;;;;2.87;1.97;;;20.20;99.90;;;;;;4978881;28;20462;-77
2023/09/21 07:26:45;;;;;;;3.53;2.00;;;20.20;99.90;;;;;;4975988;28;20461;-77
2023/09/21 07:29:12;;;;;;;3.03;1.80;;;20.30;99.90;;;;;;4977266;28;20499;-77
2023/09/21 07:31:39;;;;;;;3.90;1.90;;;20.30;99.90;;;;;;4979031;28;20461;-78
2023/09/21 07:34:08;;;;;;;5.63;2.20;;;20.20;99.90;;;;;;4977181;28;20455;-78
2023/09/21 07:36:35;;;;;;;3.80;1.93;;;20.30;99.90;;;;;;4977745;28;20523;-78
2023/09/21 07:39:03;;;;;;;4.13;1.93;;;20.30;99.90;;;;;;4971233;28;20498;-78
2023/09/21 07:41:31;;;;;;;5.40;2.17;;;20.40;99.90;;;;;;4979276;28;20542;-78
2023/09/21 07:43:58;;;;;;;5.17;2.10;;;20.40;99.90;;;;;;4975027;28;20828;-78
2023/09/21 07:46:25;;;;;;;2.80;1.80;;;20.40;99.90;;;;;;4978750;28;20461;-78
2023/09/21 07:48:51;;;;;;;3.40;1.77;;;20.40;99.90;;;;;;4978546;28;20477;-78
2023/09/21 07:51:21;;;;;;;4.33;2.50;;;20.50;99.90;;;;;;4979082;28;20478;-78
2023/09/21 07:53:48;;;;;;;5.67;2.40;;;20.50;99.90;;;;;;4979625;28;20467;-78
2023/09/21 07:56:16;;;;;;;6.90;1.90;;;20.60;99.90;;;;;;4974787;28;20464;-78
2023/09/21 07:58:44;;;;;;;4.70;2.20;;;20.60;99.90;;;;;;4977499;28;20475;-78
2023/09/21 08:01:11;;;;;;;4.63;1.90;;;20.70;99.90;;;;;;4972989;28;20535;-80
2023/09/21 08:03:38;;;;;;;3.00;1.73;;;20.80;99.90;;;;;;4977302;28;20451;-78
2023/09/21 08:06:05;;;;;;;3.93;2.10;;;20.90;99.90;;;;;;4975380;28;20447;-77
2023/09/21 08:08:32;;;;;;;2.87;1.80;;;20.90;99.90;;;;;;4953428;28;20556;-77
2023/09/21 08:10:59;;;;;;;3.30;1.90;;;21.00;99.90;;;;;;4990165;28;20502;-77
2023/09/21 08:13:26;;;;;;;3.67;2.07;;;21.00;99.90;;;;;;4986756;28;20546;-77
2023/09/21 08:15:54;;;;;;;2.40;1.60;;;21.10;99.90;;;;;;4990347;28;20479;-77
2023/09/21 08:18:21;;;;;;;2.97;2.17;;;21.20;99.90;;;;;;4986836;28;21028;-77
2023/09/21 08:20:48;;;;;;;4.10;2.00;;;21.20;99.90;;;;;;4994709;28;20519;-79
2023/09/21 08:23:17;;;;;;;2.90;2.23;;;21.30;99.90;;;;;;4977343;28;20460;-80
2023/09/21 08:25:44;;;;;;;3.27;1.73;;;21.30;96.10;;;;;;4980371;28;20502;-78
2023/09/21 08:28:10;;;;;;;3.50;2.03;;;21.40;88.30;;;;;;4980099;28;20553;-79
2023/09/21 08:30:38;;;;;;;3.27;1.93;;;21.50;85.30;;;;;;4980509;28;20491;-77
2023/09/21 08:33:07;;;;;;;7.53;3.47;;;21.50;95.10;;;;;;4979565;28;20459;-78
2023/09/21 08:35:34;;;;;;;5.30;2.03;;;21.60;92.40;;;;;;4975905;28;20489;-79
2023/09/21 08:38:00;;;;;;;2.43;1.80;;;21.60;78.60;;;;;;4979865;28;20466;-76
2023/09/21 08:40:30;;;;;;;5.63;2.23;;;21.70;77.30;;;;;;4977473;28;20471;-78
2023/09/21 08:42:59;;;;;;;4.20;2.10;;;21.80;65.40;;;;;;4977962;28;20543;-78
2023/09/21 08:45:25;;;;;;;3.60;2.10;;;21.80;52.40;;;;;;4978791;28;20467;-79
2023/09/21 08:47:53;;;;;;;4.77;1.90;;;21.90;92.80;;;;;;4978864;28;20527;-79
2023/09/21 08:50:22;;;;;;;2.50;1.70;;;22.00;45.70;;;;;;4979445;28;20500;-78
2023/09/21 08:52:53;;;;;;;3.00;1.80;;;22.00;1.00;;;;;;4977517;28;20466;-78
2023/09/21 08:55:21;;;;;;;4.10;2.33;;;22.00;1.00;;;;;;4976524;28;20473;-78
2023/09/21 08:57:48;;;;;;;3.60;1.90;;;22.10;1.00;;;;;;4979065;28;20518;-78
2023/09/21 09:00:16;;;;;;;4.67;1.90;;;22.00;32.40;;;;;;4971202;28;20479;-79
2023/09/21 09:02:43;;;;;;;3.40;1.83;;;22.00;1.00;;;;;;4971416;28;20463;-78
2023/09/21 09:05:11;;;;;;;3.93;1.80;;;22.10;99.90;;;;;;4979073;28;20518;-79
2023/09/21 09:07:41;;;;;;;4.43;2.13;;;22.10;99.90;;;;;;4978256;28;20468;-78
2023/09/21 09:10:09;;;;;;;2.60;1.50;;;22.20;99.90;;;;;;4977800;28;20501;-78
2023/09/21 09:12:37;;;;;;;3.03;2.20;;;22.30;99.90;;;;;;4978410;28;20467;-78
2023/09/21 09:15:05;;;;;;;3.17;1.80;;;22.50;99.90;;;;;;4978188;28;20547;-76
2023/09/21 09:17:33;;;;;;;2.77;1.70;;;22.60;99.90;;;;;;4977441;28;20455;-77
2023/09/21 09:20:02;;;;;;;4.47;2.13;;;22.80;99.90;;;;;;4976758;28;20468;-77
2023/09/21 09:22:31;;;;;;;4.40;1.83;;;22.90;99.90;;;;;;4977720;28;20452;-78
2023/09/21 09:25:04;;;;;;;4.50;2.33;;;22.90;99.90;;;;;;4977930;28;20467;-78
2023/09/21 09:27:31;;;;;;;4.50;2.00;;;22.90;99.90;;;;;;4978075;28;20455;-78
2023/09/21 09:29:59;;;;;;;4.47;2.17;;;23.10;99.90;;;;;;4977828;28;20491;-78
2023/09/21 09:32:34;;;;;;;6.20;2.00;;;23.10;99.90;;;;;;4976855;28;20812;-78
2023/09/21 09:35:02;;;;;;;3.93;1.63;;;23.10;99.90;;;;;;4972871;28;20945;-78
2023/09/21 09:37:28;;;;;;;3.17;2.00;;;23.10;99.90;;;;;;4978020;28;20460;-79
2023/09/21 09:39:56;;;;;;;4.00;1.97;;;23.10;99.90;;;;;;4977937;28;21007;-77
2023/09/21 09:42:26;;;;;;;3.80;2.17;;;23.20;99.90;;;;;;4976846;28;20455;-78
2023/09/21 09:44:54;;;;;;;3.93;1.77;;;23.20;99.90;;;;;;4976849;28;20463;-78
2023/09/21 09:47:25;;;;;;;3.93;1.80;;;23.20;99.90;;;;;;4974344;28;20946;-78
2023/09/21 09:49:54;;;;;;;2.77;1.77;;;23.20;99.90;;;;;;4978372;28;20495;-80
2023/09/21 09:52:22;;;;;;;4.23;2.00;;;23.30;99.90;;;;;;4969278;28;20473;-78
2023/09/21 09:54:51;;;;;;;2.77;1.87;;;23.30;99.90;;;;;;4973274;28;20491;-79
2023/09/21 09:57:18;;;;;;;3.40;1.60;;;23.30;99.90;;;;;;4965494;28;20493;-79
2023/09/21 09:59:48;;;;;;;3.93;1.90;;;23.40;99.90;;;;;;4977614;28;20476;-78
2023/09/21 10:02:18;;;;;;;6.73;2.00;;;23.20;99.90;;;;;;4976532;28;20557;-80
2023/09/21 10:04:47;;;;;;;2.50;1.63;;;23.40;99.90;;;;;;4977344;28;20800;-78
2023/09/21 10:07:16;;;;;;;4.57;1.93;;;23.70;99.90;;;;;;4976893;28;20455;-78
2023/09/21 10:09:44;;;;;;;3.57;2.20;;;24.00;99.90;;;;;;4978073;28;20844;-79
2023/09/21 10:12:12;;;;;;;3.50;1.73;;;24.00;99.90;;;;;;4969414;28;20471;-79
2023/09/21 10:14:43;;;;;;;2.73;1.50;;;24.00;99.90;;;;;;4977661;28;20536;-79
2023/09/21 10:17:14;;;;;;;3.17;1.67;;;24.00;99.90;;;;;;4973012;28;20470;-83
2023/09/21 10:19:43;;;;;;;2.80;1.77;;;24.00;99.90;;;;;;4977503;28;20479;-80
2023/09/21 10:22:23;;;;;;;5.07;2.10;;;23.90;99.90;;;;;;4973346;28;20514;-79
2023/09/21 10:24:51;;;;;;;6.70;2.03;;;23.90;99.90;;;;;;4979299;28;20477;-78
2023/09/21 10:27:23;;;;;;;2.70;1.60;;;23.80;99.90;;;;;;4981808;28;20764;-78
2023/09/21 10:29:53;;;;;;;2.90;1.70;;;23.60;99.90;;;;;;4979865;28;20499;-78
2023/09/21 10:32:24;;;;;;;2.80;1.93;;;23.60;99.90;;;;;;4977260;28;20455;-79
2023/09/21 10:34:52;;;;;;;3.07;1.77;;;23.50;99.90;;;;;;4977086;28;20455;-78
2023/09/21 10:37:26;;;;;;;2.90;1.73;;;23.50;99.90;;;;;;4974814;28;20455;-78
2023/09/21 10:39:58;;;;;;;3.87;1.70;;;23.50;99.90;;;;;;4976388;28;20471;-78
2023/09/21 10:42:34;;;;;;;2.70;1.80;;;23.50;99.90;;;;;;4973843;28;20463;-78
2023/09/21 10:45:07;;;;;;;3.97;1.73;;;23.40;99.90;;;;;;4976382;28;20469;-79
2023/09/21 10:47:47;;;;;;;5.93;2.30;;;23.50;99.90;;;;;;4976316;28;20969;-79
2023/09/21 10:50:16;;;;;;;3.17;2.00;;;23.50;99.90;;;;;;4977322;28;20549;-79
2023/09/21 10:52:44;;;;;;;2.83;1.60;;;23.50;99.90;;;;;;4977128;28;20451;-78
2023/09/21 10:55:13;;;;;;;3.70;1.60;;;23.70;99.90;;;;;;4975971;28;20447;-79
2023/09/21 10:57:41;;;;;;;2.97;1.90;;;23.80;99.90;;;;;;4976626;28;20546;-78
2023/09/21 11:00:15;;;;;;;5.23;2.10;;;24.00;99.90;;;;;;4977573;28;20463;-79
2023/09/21 11:02:46;;;;;;;3.20;2.00;;;24.10;99.90;;;;;;4977172;28;20459;-79
2023/09/21 11:05:16;;;;;;;3.70;1.77;;;24.10;99.90;;;;;;4976354;28;20455;-78
2023/09/21 11:07:44;;;;;;;3.10;1.80;;;24.00;99.90;;;;;;4968912;28;20525;-79
2023/09/21 11:10:12;;;;;;;2.30;1.70;;;23.90;99.90;;;;;;4975393;28;20518;-78
2023/09/21 11:12:40;;;;;;;6.37;2.23;;;23.90;99.90;;;;;;4975088;28;20471;-79
2023/09/21 11:15:10;;;;;;;2.70;2.03;;;24.00;99.90;;;;;;4975588;28;20483;-77
2023/09/21 11:17:37;;;;;;;3.93;1.90;;;23.90;99.90;;;;;;4974387;28;20894;-78
2023/09/21 11:20:08;;;;;;;6.67;2.07;;;24.00;99.90;;;;;;4975373;28;20477;-79
2023/09/21 11:22:35;;;;;;;3.70;1.90;;;24.00;99.90;;;;;;4976158;28;20491;-80
2023/09/21 11:25:02;;;;;;;3.70;1.90;;;23.70;99.90;;;;;;4973854;28;20455;-78
2023/09/21 11:27:29;;;;;;;4.30;2.30;;;23.60;99.90;;;;;;4976844;28;20463;-79
2023/09/21 11:29:57;;;;;;;3.00;1.90;;;23.50;99.90;;;;;;4977705;28;20476;-79
2023/09/21 11:32:24;;;;;;;2.97;2.00;;;23.30;99.90;;;;;;4979374;28;20455;-77
2023/09/21 11:34:58;;;;;;;4.13;2.03;;;23.20;99.90;;;;;;4966685;28;20930;-78
2023/09/21 11:37:28;;;;;;;4.00;2.30;;;23.30;99.90;;;;;;4977100;28;20463;-81
2023/09/21 11:39:55;;;;;;;2.97;1.60;;;23.40;99.90;;;;;;4975376;28;20487;-80
2023/09/21 11:42:24;;;;;;;3.07;1.97;;;23.80;99.90;;;;;;4974833;28;20498;-80
2023/09/21 11:44:51;;;;;;;3.23;1.50;;;24.30;99.90;;;;;;4982926;28;21093;-80
2023/09/21 11:47:18;;;;;;;8.33;3.40;;;24.40;99.90;;;;;;4980128;28;20451;-79
2023/09/21 11:49:45;;;;;;;3.30;1.97;;;24.80;99.90;;;;;;4979176;28;20475;-79
2023/09/21 11:52:14;;;;;;;3.17;1.90;;;25.30;99.90;;;;;;4978609;28;20505;-80
2023/09/21 11:54:43;;;;;;;4.67;1.87;;;25.50;99.90;;;;;;4978706;28;21028;-77
2023/09/21 11:57:11;;;;;;;3.60;1.97;;;25.70;99.90;;;;;;4982433;28;20465;-79
2023/09/21 11:59:41;;;;;;;4.93;1.97;;;26.10;99.90;;;;;;4981660;28;20482;-80
2023/09/21 12:02:10;;;;;;;3.53;2.03;;;26.30;99.90;;;;;;4980082;28;20451;-79
2023/09/21 12:04:38;;;;;;;2.83;1.70;;;26.40;99.90;;;;;;4978213;28;20499;-79
2023/09/21 12:07:05;;;;;;;4.87;2.07;;;26.60;99.90;;;;;;4980380;28;20462;-79
2023/09/21 12:09:36;;;;;;;3.97;1.97;;;26.70;99.90;;;;;;4981632;28;20563;-79
2023/09/21 12:12:06;;;;;;;4.33;1.90;;;26.40;99.90;;;;;;4979366;28;20483;-79
2023/09/21 12:14:33;;;;;;;3.50;1.67;;;26.00;99.90;;;;;;4979836;28;20625;-80
2023/09/21 12:17:04;;;;;;;3.90;1.70;;;25.60;99.90;;;;;;4979715;28;20451;-78
2023/09/21 12:19:32;;;;;;;3.80;1.80;;;25.30;99.90;;;;;;4981364;28;20541;-79
2023/09/21 12:21:59;;;;;;;3.43;1.60;;;24.90;99.90;;;;;;4980279;28;20464;-79
2023/09/21 12:24:26;;;;;;;5.47;2.10;;;24.90;99.90;;;;;;4978977;28;20491;-78
2023/09/21 12:26:53;;;;;;;3.97;1.47;;;24.50;99.90;;;;;;4980525;28;20463;-78
2023/09/21 12:29:22;;;;;;;3.10;1.73;;;24.50;99.90;;;;;;4980732;28;20476;-79
2023/09/21 12:31:50;;;;;;;3.83;2.07;;;24.30;99.90;;;;;;4980073;28;20504;-79
2023/09/21 12:34:17;;;;;;;2.83;1.60;;;24.10;99.90;;;;;;4976891;28;20567;-77
2023/09/21 12:36:48;;;;;;;3.20;1.80;;;24.10;99.90;;;;;;4960512;28;20506;-78
2023/09/21 12:39:15;;;;;;;4.03;2.20;;;24.00;99.90;;;;;;4961433;28;20475;-78
2023/09/21 12:41:43;;;;;;;3.30;1.93;;;23.90;99.90;;;;;;4979982;28;20539;-78
2023/09/21 12:44:10;;;;;;;5.20;2.20;;;23.90;99.90;;;;;;4976461;28;20459;-78
2023/09/21 12:46:38;;;;;;;2.83;1.93;;;23.90;99.90;;;;;;4974611;28;20548;-78
2023/09/21 12:49:05;;;;;;;5.23;1.80;;;23.80;99.90;;;;;;4967699;28;20476;-78
2023/09/21 12:51:32;;;;;;;3.40;2.10;;;23.70;99.90;;;;;;4975614;28;20956;-79
2023/09/21 12:54:00;;;;;;;3.80;2.03;;;23.70;99.90;;;;;;4977352;28;20447;-78